createdAt,value
2019-05-18T00:00:03.903Z,16.07
2019-05-18T00:05:09.892Z,12.27
2019-05-18T00:15:26.384Z,19.40
2019-05-18T00:26:02.355Z,15.43
2019-05-18T00:31:07.863Z,13.75
2019-05-18T00:36:13.312Z,13.33
2019-05-18T00:41:18.626Z,14.90
2019-05-18T00:46:23.891Z,14.20
2019-05-18T00:51:29.280Z,15.27
2019-05-18T00:56:34.592Z,12.20
2019-05-18T01:01:39.969Z,13.97
2019-05-18T01:06:45.724Z,15.60
2019-05-18T01:11:51.143Z,12.90
2019-05-18T01:16:56.659Z,19.83
2019-05-18T01:22:01.971Z,14.67
2019-05-18T01:27:07.382Z,8.03
2019-05-18T01:32:12.706Z,10.63
2019-05-18T01:37:18.154Z,9.33
2019-05-18T01:42:23.622Z,10.00
2019-05-18T01:47:28.969Z,15.10
2019-05-18T01:52:34.337Z,12.78
2019-05-18T01:57:39.677Z,15.53
2019-05-18T02:02:45.366Z,9.93
2019-05-18T02:07:50.969Z,12.03
2019-05-18T02:12:56.376Z,14.50
2019-05-18T02:18:01.726Z,10.03
2019-05-18T02:23:07.170Z,12.37
2019-05-18T02:28:12.490Z,13.33
2019-05-18T02:33:17.913Z,16.60
2019-05-18T02:38:23.271Z,13.87
2019-05-18T02:43:28.582Z,9.20
2019-05-18T02:48:48.901Z,10.03
2019-05-18T02:53:41.065Z,12.45
2019-05-18T02:58:46.359Z,13.17
2019-05-18T03:03:51.771Z,9.77
2019-05-18T03:08:57.086Z,10.30
2019-05-18T03:14:02.577Z,12.10
2019-05-18T03:19:09.297Z,13.53
2019-05-18T03:24:14.736Z,10.50
2019-05-18T03:29:20.191Z,13.07
2019-05-18T03:34:25.622Z,11.90
2019-05-18T03:39:30.960Z,11.63
2019-05-18T03:44:36.201Z,19.53
2019-05-18T03:49:41.515Z,15.87
2019-05-18T03:54:46.907Z,12.57
2019-05-18T03:59:52.221Z,14.40
2019-05-18T04:04:57.631Z,13.77
2019-05-18T04:10:02.946Z,19.77
2019-05-18T04:15:08.766Z,18.13
2019-05-18T04:20:14.299Z,14.10
2019-05-18T04:25:19.588Z,15.60
2019-05-18T04:30:25.116Z,15.73
2019-05-18T04:35:30.383Z,18.13
2019-05-18T04:40:35.832Z,19.13
2019-05-18T04:45:41.214Z,19.27
2019-05-18T04:50:46.598Z,16.50
2019-05-18T04:55:51.944Z,12.63
2019-05-18T05:00:57.302Z,15.40
2019-05-18T05:06:02.618Z,14.10
2019-05-18T05:11:07.848Z,14.17
2019-05-18T05:16:13.460Z,15.13
2019-05-18T05:21:18.739Z,16.57
2019-05-18T05:26:24.206Z,21.13
2019-05-18T05:31:29.770Z,16.00
2019-05-18T05:36:35.030Z,20.20
2019-05-18T05:41:40.272Z,17.30
2019-05-18T05:46:45.643Z,17.00
2019-05-18T05:51:51.057Z,19.53
2019-05-18T05:56:56.379Z,19.50
2019-05-18T06:02:02.017Z,18.37
2019-05-18T06:07:07.375Z,17.57
2019-05-18T06:12:12.661Z,20.00
2019-05-18T06:17:18.062Z,16.27
2019-05-18T06:22:23.449Z,18.17
2019-05-18T06:27:28.814Z,20.50
2019-05-18T06:32:34.055Z,18.63
2019-05-18T06:37:39.427Z,14.70
2019-05-18T06:42:44.674Z,20.93
2019-05-18T06:47:50.027Z,16.60
2019-05-18T06:52:55.353Z,20.53
2019-05-18T06:58:01.985Z,22.67
2019-05-18T07:03:07.285Z,26.00
2019-05-18T07:08:12.938Z,19.27
2019-05-18T07:13:18.355Z,16.33
2019-05-18T07:18:23.585Z,16.73
2019-05-18T07:23:29.038Z,15.93
2019-05-18T07:28:34.646Z,18.17
2019-05-18T07:33:40.187Z,14.35
2019-05-18T07:38:45.835Z,14.20
2019-05-18T07:43:51.329Z,16.63
2019-05-18T07:50:12.295Z,17.77
2019-05-18T07:55:17.862Z,18.02
2019-05-18T08:00:22.875Z,17.07
2019-05-18T08:10:45.121Z,15.60
2019-05-18T08:15:50.449Z,15.43
2019-05-18T08:20:55.215Z,16.40
2019-05-18T08:26:00.160Z,20.00
2019-05-18T08:31:05.102Z,16.80
2019-05-18T08:36:10.830Z,16.60
2019-05-18T08:41:15.608Z,17.33
2019-05-18T08:46:20.631Z,16.77
2019-05-18T08:51:25.475Z,18.93
2019-05-18T08:56:30.715Z,18.87
2019-05-18T09:01:36.479Z,17.60
2019-05-18T09:06:41.222Z,19.93
2019-05-18T09:11:46.436Z,21.13
2019-05-18T09:16:51.567Z,17.13
2019-05-18T09:21:56.343Z,16.10
2019-05-18T09:27:02.236Z,20.27
2019-05-18T09:32:07.331Z,20.17
2019-05-18T09:37:12.354Z,17.97
2019-05-18T09:42:17.243Z,19.57
2019-05-18T09:47:22.667Z,19.87
2019-05-18T09:52:44.075Z,21.37
2019-05-18T09:57:34.187Z,17.50
2019-05-18T10:02:39.487Z,23.60
2019-05-18T10:07:44.460Z,19.10
2019-05-18T10:12:49.294Z,20.00
2019-05-18T10:17:54.224Z,21.43
2019-05-18T10:23:11.966Z,26.33
2019-05-18T10:28:05.730Z,23.60
2019-05-18T10:33:11.006Z,20.53
2019-05-18T10:38:16.087Z,24.00
2019-05-18T10:43:20.841Z,23.63
2019-05-18T10:48:25.745Z,25.87
2019-05-18T10:53:30.526Z,24.73
2019-05-18T10:58:35.888Z,24.60
2019-05-18T11:03:40.769Z,25.00
2019-05-18T11:08:45.658Z,21.00
2019-05-18T11:13:50.407Z,21.43
2019-05-18T11:18:55.176Z,23.70
2019-05-18T11:24:00.087Z,23.70
2019-05-18T11:29:04.870Z,21.27
2019-05-18T11:34:09.712Z,23.97
2019-05-18T11:39:14.547Z,17.40
2019-05-18T11:44:19.549Z,20.27
2019-05-18T11:49:24.374Z,20.13
2019-05-18T11:54:29.104Z,20.35
2019-05-18T11:59:34.929Z,18.10
2019-05-18T12:04:40.121Z,19.20
2019-05-18T12:09:45.110Z,18.10
2019-05-18T12:14:49.789Z,18.43
2019-05-18T12:19:54.669Z,17.10
2019-05-18T12:24:59.451Z,15.03
2019-05-18T12:30:04.483Z,19.43
2019-05-18T12:35:09.599Z,22.43
2019-05-18T12:40:18.660Z,15.87
2019-05-18T12:45:24.111Z,22.65
2019-05-18T12:50:29.320Z,19.77
2019-05-18T12:55:34.342Z,14.13
2019-05-18T13:00:39.221Z,13.77
2019-05-18T13:05:44.071Z,18.90
2019-05-18T13:10:49.029Z,16.37
2019-05-18T13:15:53.695Z,14.57
2019-05-18T13:20:58.746Z,19.33
2019-05-18T13:26:03.941Z,13.73
2019-05-18T13:31:08.950Z,16.57
2019-05-18T13:36:13.759Z,14.37
2019-05-18T13:41:18.636Z,11.00
2019-05-18T13:46:24.106Z,12.73
2019-05-18T13:51:28.978Z,8.78
2019-05-18T13:56:34.029Z,12.37
2019-05-18T14:01:38.991Z,11.43
2019-05-18T14:06:43.958Z,10.57
2019-05-18T14:11:49.155Z,13.40
2019-05-18T14:16:54.119Z,8.97
2019-05-18T14:21:59.272Z,12.33
2019-05-18T14:27:04.166Z,10.63
2019-05-18T14:32:11.090Z,15.57
2019-05-18T14:37:16.026Z,13.93
2019-05-18T14:42:21.043Z,14.50
2019-05-18T14:47:27.514Z,16.57
2019-05-18T14:52:32.563Z,16.93
2019-05-18T14:57:37.419Z,16.27
2019-05-18T15:02:42.189Z,19.17
2019-05-18T15:07:46.937Z,12.87
2019-05-18T15:12:51.795Z,19.27
2019-05-18T15:17:56.937Z,17.83
2019-05-18T15:23:01.724Z,13.97
2019-05-18T15:28:07.046Z,17.83
2019-05-18T15:33:11.936Z,11.93
2019-05-18T15:38:16.737Z,15.30
2019-05-18T15:43:21.558Z,12.73
2019-05-18T15:48:26.789Z,12.63
2019-05-18T15:53:31.677Z,15.60
2019-05-18T15:58:36.555Z,10.23
2019-05-18T16:03:41.513Z,18.50
2019-05-18T16:08:46.621Z,15.93
2019-05-18T16:13:51.536Z,14.57
2019-05-18T16:18:56.362Z,17.50
2019-05-18T16:24:01.260Z,12.63
2019-05-18T16:29:06.240Z,14.70
2019-05-18T16:34:11.450Z,11.50
2019-05-18T16:39:16.394Z,16.67
2019-05-18T16:44:21.259Z,17.43
2019-05-18T16:49:26.125Z,13.20
2019-05-18T16:54:30.898Z,11.67
2019-05-18T16:59:35.944Z,14.43
2019-05-18T17:04:40.866Z,9.93
2019-05-18T17:09:45.599Z,15.40
2019-05-18T17:14:51.014Z,12.70
2019-05-18T17:19:56.183Z,15.80
2019-05-18T17:25:01.259Z,14.97
2019-05-18T17:30:06.483Z,15.97
2019-05-18T17:35:11.922Z,14.00
2019-05-18T17:40:18.274Z,13.40
2019-05-18T17:45:23.288Z,11.30
2019-05-18T17:50:28.329Z,11.40
2019-05-18T17:55:33.225Z,15.13
2019-05-18T18:00:38.192Z,13.83
2019-05-18T18:05:43.020Z,13.43
2019-05-18T18:16:04.679Z,7.87
2019-05-18T18:21:09.660Z,13.97
2019-05-18T18:26:14.326Z,9.23
2019-05-18T18:31:19.091Z,17.67
2019-05-18T18:36:24.387Z,14.15
2019-05-18T18:46:59.707Z,9.40
2019-05-18T18:52:05.420Z,14.63
2019-05-18T19:08:08.532Z,12.40
2019-05-18T19:24:07.493Z,11.57
2019-05-18T19:29:12.244Z,13.47
2019-05-18T19:34:17.309Z,17.93
2019-05-18T19:39:22.189Z,12.07
2019-05-18T19:44:27.010Z,11.70
2019-05-18T19:49:31.767Z,18.37
2019-05-18T19:54:36.651Z,16.67
2019-05-18T19:59:41.418Z,14.65
2019-05-18T20:05:05.901Z,16.77
2019-05-18T20:09:53.045Z,20.60
2019-05-18T20:14:57.929Z,13.10
2019-05-18T20:20:02.739Z,13.93
2019-05-18T20:25:08.647Z,12.60
2019-05-18T20:30:14.112Z,13.70
2019-05-18T20:35:19.010Z,11.40
2019-05-18T20:40:24.251Z,14.18
2019-05-18T20:45:28.991Z,15.85
2019-05-18T20:50:33.759Z,12.13
2019-05-18T20:55:38.730Z,10.73
2019-05-18T21:00:43.469Z,10.93
2019-05-18T21:05:48.740Z,10.43
2019-05-18T21:10:53.686Z,11.13
2019-05-18T21:15:58.408Z,12.83
2019-05-18T21:21:03.208Z,13.10
2019-05-18T21:26:07.969Z,13.40
2019-05-18T21:31:12.922Z,15.30
2019-05-18T21:36:17.711Z,14.03
2019-05-18T21:41:22.650Z,15.60
2019-05-18T21:46:27.561Z,17.57
2019-05-18T21:51:32.382Z,12.57
2019-05-18T21:56:37.346Z,12.57
2019-05-18T22:01:42.673Z,9.60
2019-05-18T22:06:47.550Z,15.40
2019-05-18T22:11:52.310Z,9.73
2019-05-18T22:16:57.227Z,12.90
2019-05-18T22:22:02.062Z,11.77
2019-05-18T22:27:06.989Z,18.20
2019-05-18T22:32:12.045Z,14.23
2019-05-18T22:37:17.110Z,17.47
2019-05-18T22:42:22.047Z,16.20
2019-05-18T22:47:26.887Z,16.93
2019-05-18T22:52:31.790Z,18.03
2019-05-18T22:57:36.759Z,17.02
2019-05-18T23:02:41.519Z,18.60
2019-05-18T23:07:46.639Z,18.27
2019-05-18T23:12:51.507Z,16.37
2019-05-18T23:17:56.489Z,17.53
2019-05-18T23:23:01.290Z,17.53
2019-05-18T23:28:06.087Z,17.03
2019-05-18T23:33:10.911Z,19.77
2019-05-18T23:38:15.767Z,18.50
2019-05-18T23:43:20.605Z,19.07
2019-05-18T23:48:25.421Z,18.17
2019-05-18T23:53:30.123Z,18.57
2019-05-18T23:58:34.944Z,16.73
